Latest Weather Observations for Cooktown

IDQ60801

Issued at 10:02 pm EST Tuesday 4 August 2020 (issued every 10 minutes, with the page automatically refreshed every 10 minutes)

About weather observations | Map of weather stations | Latest weather observations for QLD | Other Formats
Station Details ID: 031209 Name: COOKTOWN AIRPORT Lat: -15.45 Lon: 145.19 Height: 4.8 m
Data from the previous 72 hours. | See also: Recent months at Cooktown
Date/Time
EST
Temp
°C
App
Temp
°C
Dew
Point
°C
Rel
Hum
%
Delta-T
°C
Wind Press
QNH
hPa
Press
MSL
hPa
Rain since
9am
mm
Dir  Spd
km/h
Gust
km/h
Spd
kts
Gust
kts
04/10:00pm 22.2 22.1 18.8 81 2.1 ESE 17 24 9 13 1014.3 1014.3 0.0
04/09:30pm 22.1 21.6 18.7 81 2.1 ESE 19 32 10 17 1014.1 1014.1 0.0
04/09:00pm 22.2 22.3 19.2 83 1.9 ESE 17 28 9 15 1013.8 1013.8 0.0
04/08:45pm 21.9 21.9 18.9 83 1.9 ESE 17 20 9 11 1013.7 1013.7 0.0
04/08:30pm 21.9 21.8 18.7 82 2.0 SE 17 26 9 14 1013.6 1013.6 0.0
04/08:17pm 21.9 21.9 18.9 83 1.9 ESE 17 26 9 14 1013.5 1013.5 0.0
04/08:00pm 21.7 21.7 18.9 84 1.8 ESE 17 24 9 13 1013.5 1013.5 0.0
04/07:30pm 21.2 21.8 18.6 85 1.6 E 13 17 7 9 1013.2 1013.2 0.0
04/07:00pm 21.2 21.6 18.2 83 1.9 ESE 13 17 7 9 1012.9 1012.9 0.0
04/06:30pm 22.0 22.4 18.2 79 2.4 SE 13 20 7 11 1012.6 1012.6 0.0
04/06:00pm 22.8 21.7 17.7 73 3.2 SE 20 30 11 16 1012.4 1012.4 0.0
04/05:30pm 23.6 22.4 17.6 69 3.7 ESE 20 28 11 15 1012.2 1012.2 0.0
04/05:00pm 24.1 22.9 17.6 67 4.1 SE 20 28 11 15 1011.9 1011.9 0.0
04/04:30pm 24.9 24.1 17.9 65 4.4 SE 19 26 10 14 1011.6 1011.6 0.0
04/04:00pm 25.7 24.7 17.6 61 5.1 SE 19 26 10 14 1011.5 1011.5 0.0
04/03:30pm 25.8 23.7 17.2 59 5.4 ESE 24 35 13 19 1011.6 1011.6 0.0
04/03:00pm 26.1 23.9 16.9 57 5.7 ESE 24 35 13 19 1011.7 1011.7 0.0
04/02:30pm 26.8 24.6 17.0 55 6.1 ESE 24 33 13 18 1011.9 1011.9 0.0
04/02:00pm 26.4 23.9 17.2 57 5.7 ESE 26 33 14 18 1012.3 1012.3 0.0
04/01:30pm 27.4 26.1 17.3 54 6.3 SE 20 32 11 17 1012.6 1012.6 0.0
04/01:00pm 27.4 25.7 17.3 54 6.3 SE 22 32 12 17 1013.1 1013.1 0.0
04/12:30pm 26.3 24.6 17.1 57 5.7 SE 22 35 12 19 1013.6 1013.6 0.0
04/12:00pm 26.0 24.3 17.1 58 5.5 ESE 22 32 12 17 1014.2 1014.2 0.0
04/11:30am 25.8 24.4 18.0 62 4.9 ESE 22 33 12 18 1014.7 1014.7 0.0
04/11:00am 25.4 23.9 17.6 62 4.9 SE 22 37 12 20 1015.1 1015.1 0.0
04/10:30am 25.3 24.2 17.7 62 4.8 ESE 20 37 11 20 1015.3 1015.3 0.0
04/10:00am 24.9 23.5 17.9 65 4.4 ESE 22 33 12 18 1015.6 1015.6 0.0
04/09:30am 24.2 23.3 17.7 67 4.1 SE 19 28 10 15 1015.5 1015.5 0.0
04/09:00am 23.8 23.6 17.5 68 3.9 SE 15 24 8 13 1015.5 1015.5 0.0
04/08:30am 22.2 24.2 18.8 81 2.1 S 6 13 3 7 1015.2 1015.2 0.0
04/08:00am 18.3 19.4 16.5 89 1.1 WNW 6 7 3 4 1015.0 1015.0 0.0
04/07:30am 16.3 16.9 15.3 94 0.6 WNW 6 9 3 5 1014.7 1014.7 0.0
04/07:00am 14.8 14.9 14.0 95 0.4 WNW 6 7 3 4 1014.4 1014.4 0.0
04/06:30am 14.5 14.3 13.5 94 0.6 WNW 7 9 4 5 1014.1 1014.1 0.0
04/06:00am 14.8 16.0 13.8 94 0.6 CALM 0 0 0 0 1013.9 1013.9 0.0
04/05:30am 15.2 16.5 14.1 93 0.6 CALM 0 7 0 4 1013.8 1013.8 0.0
04/05:00am 15.5 16.9 14.4 93 0.6 CALM 0 0 0 0 1013.4 1013.4 0.0
04/04:30am 15.8 15.8 14.3 91 0.9 WNW 7 9 4 5 1013.3 1013.3 0.0
04/04:00am 18.0 18.7 16.0 88 1.2 SSE 7 7 4 4 1013.2 1013.2 0.0
04/03:30am 18.8 19.4 16.8 88 1.2 SE 9 13 5 7 1013.3 1013.3 0.0
04/03:00am 17.8 20.0 16.5 92 0.8 CALM 0 7 0 4 1013.6 1013.6 0.0
04/02:30am 17.7 18.9 15.9 89 1.1 S 4 7 2 4 1013.8 1013.8 0.0
04/02:00am 18.1 19.8 16.1 88 1.2 SSW 2 7 1 4 1014.0 1014.0 0.0
04/01:30am 19.2 20.2 16.4 84 1.7 SSE 6 9 3 5 1014.2 1014.2 0.0
04/01:00am 20.1 20.7 16.9 82 1.9 SE 9 13 5 7 1014.3 1014.3 0.0
04/12:30am 20.2 20.8 16.8 81 2.1 SE 9 15 5 8 1014.4 1014.4 0.0
04/12:00am 20.5 21.1 16.9 80 2.2 SSE 9 15 5 8 1014.5 1014.5 0.0
 
Date/Time
EST
Temp
°C
App
Temp
°C
Dew
Point
°C
Rel
Hum
%
Delta-T
°C
Wind Press
QNH
hPa
Press
MSL
hPa
Rain since
9am
mm
Dir  Spd
km/h
Gust
km/h
Spd
kts
Gust
kts
03/11:30pm 20.9 20.1 17.1 79 2.3 SE 17 32 9 17 1014.5 1014.5 0.0
03/11:00pm 21.0 20.3 17.4 80 2.2 SE 17 24 9 13 1014.5 1014.5 0.0
03/10:30pm 21.2 21.2 18.0 82 2.0 SE 15 20 8 11 1014.7 1014.7 0.0
03/10:00pm 20.9 20.7 17.7 82 2.0 SE 15 24 8 13 1014.7 1014.7 0.0
03/09:30pm 21.0 21.2 17.6 81 2.1 SE 13 19 7 10 1014.7 1014.7 0.0
03/09:00pm 21.1 20.9 17.7 81 2.1 SE 15 22 8 12 1014.5 1014.5 0.0
03/08:30pm 21.2 21.2 18.0 82 2.0 SE 15 28 8 15 1014.5 1014.5 0.0
03/08:00pm 21.2 22.0 18.2 83 1.9 SE 11 17 6 9 1014.4 1014.4 0.0
03/07:30pm 21.4 21.7 17.8 80 2.2 SE 13 19 7 10 1013.9 1013.9 0.0
03/07:00pm 21.6 21.9 18.0 80 2.2 SE 13 20 7 11 1013.8 1013.8 0.0
03/06:30pm 21.9 21.7 17.5 76 2.7 SE 15 26 8 14 1013.7 1013.7 0.0
03/06:00pm 22.5 21.7 17.0 71 3.4 SE 17 26 9 14 1013.6 1013.6 0.0
03/05:30pm 23.5 21.9 16.5 65 4.3 ESE 20 30 11 16 1013.5 1013.5 0.0
03/05:00pm 24.2 22.8 17.0 64 4.4 SE 20 32 11 17 1013.4 1013.4 0.0
03/04:30pm 24.8 23.3 16.8 61 4.9 SE 20 32 11 17 1013.4 1013.4 0.0
03/04:00pm 25.6 23.9 16.2 56 5.8 SE 20 32 11 17 1013.1 1013.1 0.0
03/03:30pm 26.0 23.2 15.4 52 6.4 ESE 24 35 13 19 1013.0 1013.0 0.0
03/03:00pm 24.8 22.4 15.4 56 5.7 ESE 22 33 12 18 1013.2 1013.2 0.0
03/02:30pm 25.5 22.6 16.1 56 5.7 ESE 26 35 14 19 1013.6 1013.6 0.0
03/02:00pm 26.1 22.8 14.9 50 6.7 ESE 26 39 14 21 1013.8 1013.8 0.0
03/01:30pm 26.8 24.9 16.7 54 6.3 ESE 22 30 12 16 1014.0 1014.0 0.0
03/01:00pm 25.6 24.2 17.0 59 5.3 ESE 20 30 11 16 1014.4 1014.4 0.0
03/12:30pm 26.1 24.1 15.5 52 6.4 SE 20 28 11 15 1014.6 1014.6 0.0
03/12:00pm 26.8 24.5 16.7 54 6.3 ESE 24 35 13 19 1014.8 1014.8 0.0
03/11:30am 26.4 23.9 16.1 53 6.3 ESE 24 35 13 19 1015.1 1015.1 0.0
03/11:00am 25.4 24.0 17.1 60 5.1 SE 20 33 11 18 1015.5 1015.5 0.0
03/10:30am 25.8 24.0 16.1 55 5.9 ESE 20 32 11 17 1015.7 1015.7 0.0
03/10:00am 25.2 24.5 18.2 65 4.4 SE 19 28 10 15 1015.9 1015.9 0.0
03/09:30am 24.4 24.3 17.9 67 4.1 SE 15 22 8 12 1016.0 1016.0 0.0
03/09:00am 23.4 23.8 18.1 72 3.3 SE 13 22 7 12 1015.9 1015.9 0.8
03/08:30am 22.0 24.1 18.2 79 2.4 S 4 9 2 5 1015.8 1015.8 0.8
03/08:00am 20.1 21.9 18.2 89 1.2 NW 6 9 3 5 1015.3 1015.3 0.8
03/07:30am 18.6 21.3 17.8 95 0.5 CALM 0 0 0 0 1015.0 1015.0 0.8
03/07:00am 17.4 19.5 16.3 93 0.7 CALM 0 0 0 0 1014.6 1014.6 0.8
03/06:30am 18.5 20.8 16.8 90 1.0 CALM 0 0 0 0 1014.3 1014.3 0.8
03/06:00am 19.5 20.7 17.3 87 1.3 SE 7 11 4 6 1014.1 1014.1 0.8
03/05:30am 20.1 21.5 17.7 86 1.5 SE 7 13 4 7 1014.0 1014.0 0.8
03/05:00am 20.3 21.4 18.1 87 1.4 SE 9 13 5 7 1013.7 1013.7 0.8
03/04:30am 20.6 21.0 18.2 86 1.5 SE 13 17 7 9 1013.7 1013.7 0.8
03/04:00am 20.4 21.4 17.8 85 1.6 SE 9 17 5 9 1013.9 1013.9 0.8
03/03:30am 20.2 21.5 18.5 90 1.1 SE 9 15 5 8 1013.9 1013.9 0.8
03/03:00am 20.1 21.2 18.9 93 0.8 E 11 17 6 9 1014.2 1014.2 0.8
03/02:50am 19.8 21.1 18.5 92 0.8 ESE 9 13 5 7 1014.4 1014.4 0.8
03/02:37am 19.8 18.9 17.8 88 1.2 E 19 24 10 13 1014.5 1014.5 0.8
03/02:30am 20.0 20.6 18.5 91 0.9 E 13 20 7 11 1014.7 1014.7 0.6
03/02:00am 19.8 21.2 17.8 88 1.2 ESE 7 13 4 7 1014.7 1014.7 0.6
03/01:30am 20.1 21.7 18.2 89 1.2 SE 7 11 4 6 1014.9 1014.9 0.6
03/01:00am 20.5 21.9 18.6 89 1.2 SE 9 13 5 7 1015.1 1015.1 0.6
03/12:47am 20.4 21.4 18.7 90 1.1 SE 11 19 6 10 1015.2 1015.2 0.6
03/12:33am 20.4 21.1 18.9 91 0.9 SE 13 19 7 10 1015.5 1015.5 0.6
03/12:30am 20.4 21.1 18.9 91 0.9 SE 13 19 7 10 1015.5 1015.5 0.6
03/12:00am 20.4 21.1 18.9 91 0.9 SE 13 20 7 11 1015.8 1015.8 0.2
 
Date/Time
EST
Temp
°C
App
Temp
°C
Dew
Point
°C
Rel
Hum
%
Delta-T
°C
Wind Press
QNH
hPa
Press
MSL
hPa
Rain since
9am
mm
Dir  Spd
km/h
Gust
km/h
Spd
kts
Gust
kts
02/11:30pm 20.4 21.0 18.7 90 1.1 SSE 13 19 7 10 1015.9 1015.9 0.2
02/11:00pm 21.2 21.6 18.2 83 1.9 SE 13 22 7 12 1015.9 1015.9 0.2
02/10:30pm 21.3 21.6 17.9 81 2.1 SE 13 19 7 10 1016.0 1016.0 0.2
02/10:00pm 21.5 21.4 17.9 80 2.2 SE 15 22 8 12 1015.9 1015.9 0.2
02/09:30pm 21.0 22.0 17.8 82 2.0 SSE 9 15 5 8 1015.9 1015.9 0.2
02/09:00pm 21.3 21.8 17.5 79 2.3 SE 11 17 6 9 1015.8 1015.8 0.2
02/08:30pm 21.8 21.4 18.0 79 2.4 SE 17 26 9 14 1015.8 1015.8 0.2
02/08:00pm 21.6 21.5 17.8 79 2.4 SE 15 24 8 13 1015.7 1015.7 0.2
02/07:30pm 21.6 21.4 17.6 78 2.5 SE 15 20 8 11 1015.4 1015.4 0.2
02/07:00pm 21.6 21.9 17.8 79 2.4 SE 13 20 7 11 1015.2 1015.2 0.2
02/06:30pm 21.9 21.4 17.7 77 2.6 SE 17 28 9 15 1014.9 1014.9 0.2
02/06:00pm 22.4 22.1 17.3 73 3.1 SE 15 24 8 13 1014.7 1014.7 0.2
02/05:30pm 23.1 22.4 17.3 70 3.6 SE 17 28 9 15 1014.6 1014.6 0.2
02/05:00pm 23.8 22.3 17.8 69 3.7 SE 22 32 12 17 1014.4 1014.4 0.2
02/04:30pm 24.4 23.0 17.1 63 4.5 ESE 20 35 11 19 1014.3 1014.3 0.2
02/04:00pm 24.7 23.7 17.9 66 4.3 SE 20 30 11 16 1014.1 1014.1 0.2
02/03:30pm 24.6 23.3 17.3 64 4.5 SE 20 33 11 18 1014.2 1014.2 0.2
02/03:00pm 24.9 23.2 17.1 62 4.8 SE 22 33 12 18 1014.4 1014.4 0.2
02/02:30pm 26.1 23.6 17.2 58 5.5 SE 26 44 14 24 1014.6 1014.6 0.2
02/02:00pm 26.6 24.2 17.4 57 5.8 SE 26 41 14 22 1014.8 1014.8 0.2
02/01:30pm 26.8 24.5 16.7 54 6.3 ESE 24 39 13 21 1015.2 1015.2 0.2
02/01:00pm 26.8 25.3 16.7 54 6.3 ESE 20 32 11 17 1015.7 1015.7 0.2
02/12:30pm 26.9 24.2 16.5 53 6.4 ESE 26 39 14 21 1016.1 1016.1 0.2
02/12:00pm 26.8 24.4 17.3 56 5.9 ESE 26 39 14 21 1016.5 1016.5 0.2
02/11:30am 26.3 25.1 18.4 61 5.0 SE 22 33 12 18 1016.8 1016.8 0.2
02/11:00am 26.1 24.8 17.2 58 5.5 SE 20 32 11 17 1017.3 1017.3 0.2
02/10:30am 26.3 23.2 15.7 52 6.5 SE 26 41 14 22 1017.6 1017.6 0.2
02/10:00am 26.1 24.3 16.9 57 5.7 SE 22 35 12 19 1017.6 1017.6 0.0
02/09:30am 25.4 23.0 16.3 57 5.6 ESE 24 35 13 19 1017.6 1017.6 0.0
02/09:00am 24.4 23.2 17.4 65 4.3 SE 20 37 11 20 1017.5 1017.5 0.2
02/08:30am 23.4 23.3 18.7 75 3.0 SE 17 26 9 14 1017.3 1017.3 0.2
02/08:00am 22.0 22.6 18.6 81 2.1 SE 13 19 7 10 1017.0 1017.0 0.2
02/07:30am 20.7 21.4 17.9 84 1.7 SE 11 15 6 8 1016.7 1016.7 0.2
02/07:00am 20.3 20.8 17.5 84 1.7 SE 11 19 6 10 1016.3 1016.3 0.2
02/06:30am 20.5 20.3 17.5 83 1.8 SE 15 24 8 13 1016.0 1016.0 0.2
02/06:00am 20.6 20.5 17.8 84 1.7 SE 15 24 8 13 1015.9 1015.9 0.2
02/05:30am 20.6 19.5 17.4 82 2.0 SSE 19 30 10 16 1015.8 1015.8 0.2
02/05:00am 19.5 20.4 17.5 88 1.2 SSE 9 15 5 8 1015.8 1015.8 0.2
02/04:30am 19.8 21.0 17.4 86 1.5 S 7 11 4 6 1015.8 1015.8 0.2
02/04:00am 20.5 22.2 18.1 86 1.5 SSE 6 13 3 7 1015.9 1015.9 0.2
02/03:30am 20.5 21.7 18.3 87 1.4 SSE 9 13 5 7 1016.1 1016.1 0.2
02/03:00am 20.4 20.8 18.2 87 1.4 S 13 19 7 10 1016.0 1016.0 0.2
02/02:30am 20.8 21.1 17.8 83 1.9 SSE 13 19 7 10 1016.1 1016.1 0.2
02/02:00am 21.3 20.9 18.1 82 2.0 SSE 17 32 9 17 1016.3 1016.3 0.2
02/01:30am 21.3 21.4 18.3 83 1.9 SE 15 20 8 11 1016.3 1016.3 0.2
02/01:00am 21.0 21.3 18.0 83 1.9 SE 13 22 7 12 1016.6 1016.6 0.2
02/12:30am 20.7 21.5 17.3 81 2.1 SSE 9 13 5 7 1016.7 1016.7 0.2
02/12:00am 21.0 21.6 17.6 81 2.1 SSE 11 19 6 10 1017.0 1017.0 0.2
 
Date/Time
EST
Temp
°C
App
Temp
°C
Dew
Point
°C
Rel
Hum
%
Delta-T
°C
Wind Press
QNH
hPa
Press
MSL
hPa
Rain since
9am
mm
Dir  Spd
km/h
Gust
km/h
Spd
kts
Gust
kts
01/11:30pm 20.6 20.8 17.6 83 1.8 SSE 13 19 7 10 1016.9 1016.9 0.2
01/11:00pm 20.6 21.0 18.2 86 1.5 SE 13 20 7 11 1017.5 1017.5 0.2
01/10:30pm 20.4 20.0 18.0 86 1.5 SSE 17 24 9 13 1017.4 1017.4 0.2

Other formats

Comma delimited format used in spreadsheet applications
http://www.bom.gov.au/fwo/IDQ60801/IDQ60801.95283.axf

JavaScript Object Notation format (JSON) in row-major order
http://www.bom.gov.au/fwo/IDQ60801/IDQ60801.95283.json

Data quality

Most of these data are generated automatically and are frequently updated. Quality checks on data are not normally performed. It is possible for incorrect values to appear. Refer to information at About Latest Weather Observations and please check the disclaimer before using these data.